sensor_id;sensor_type;location;lat;lon;timestamp;pressure;altitude;pressure_sealevel;temperature;humidity
78064;BME280;67429;51.596;-3.264;2023-05-08T00:00:56;99854.29;;;13.37;48.27
78064;BME280;67429;51.596;-3.264;2023-05-08T00:03:18;99852.98;;;12.88;48.15
78064;BME280;67429;51.596;-3.264;2023-05-08T00:05:44;99848.12;;;12.94;48.30
78064;BME280;67429;51.596;-3.264;2023-05-08T00:08:09;99845.13;;;12.51;48.98
78064;BME280;67429;51.596;-3.264;2023-05-08T00:10:35;99844.30;;;12.69;49.33
78064;BME280;67429;51.596;-3.264;2023-05-08T00:13:00;99843.14;;;12.65;49.81
78064;BME280;67429;51.596;-3.264;2023-05-08T00:15:25;99840.52;;;12.94;48.92
78064;BME280;67429;51.596;-3.264;2023-05-08T00:17:51;99842.70;;;13.15;47.96
78064;BME280;67429;51.596;-3.264;2023-05-08T00:20:17;99843.17;;;13.13;48.22
78064;BME280;67429;51.596;-3.264;2023-05-08T00:22:42;99843.00;;;13.41;47.84
78064;BME280;67429;51.596;-3.264;2023-05-08T00:25:08;99842.12;;;13.56;47.72
78064;BME280;67429;51.596;-3.264;2023-05-08T00:27:34;99839.13;;;12.99;48.64
78064;BME280;67429;51.596;-3.264;2023-05-08T00:29:59;99841.04;;;12.65;50.00
78064;BME280;67429;51.596;-3.264;2023-05-08T00:32:25;99840.75;;;11.19;53.05
78064;BME280;67429;51.596;-3.264;2023-05-08T00:34:50;99842.20;;;11.43;52.55
78064;BME280;67429;51.596;-3.264;2023-05-08T00:37:16;99842.52;;;11.09;54.74
78064;BME280;67429;51.596;-3.264;2023-05-08T00:39:42;99838.75;;;10.76;54.75
78064;BME280;67429;51.596;-3.264;2023-05-08T00:42:07;99838.81;;;11.05;54.80
78064;BME280;67429;51.596;-3.264;2023-05-08T00:44:33;99837.63;;;11.55;54.11
78064;BME280;67429;51.596;-3.264;2023-05-08T00:46:58;99833.98;;;11.83;53.45
78064;BME280;67429;51.596;-3.264;2023-05-08T00:49:25;99828.16;;;11.71;53.78
78064;BME280;67429;51.596;-3.264;2023-05-08T00:51:51;99824.75;;;11.85;52.50
78064;BME280;67429;51.596;-3.264;2023-05-08T00:54:16;99824.86;;;12.30;51.56
78064;BME280;67429;51.596;-3.264;2023-05-08T00:56:42;99821.86;;;12.32;51.96
78064;BME280;67429;51.596;-3.264;2023-05-08T00:59:12;99817.36;;;11.78;52.83
78064;BME280;67429;51.596;-3.264;2023-05-08T01:01:33;99811.46;;;11.21;53.62
78064;BME280;67429;51.596;-3.264;2023-05-08T01:03:58;99808.77;;;10.96;55.04
78064;BME280;67429;51.596;-3.264;2023-05-08T01:06:23;99806.19;;;11.77;53.44
78064;BME280;67429;51.596;-3.264;2023-05-08T01:08:48;99803.02;;;11.70;53.68
78064;BME280;67429;51.596;-3.264;2023-05-08T01:11:22;99805.01;;;12.09;53.19
78064;BME280;67429;51.596;-3.264;2023-05-08T01:13:49;99802.23;;;11.90;53.11
78064;BME280;67429;51.596;-3.264;2023-05-08T01:16:13;99804.62;;;11.22;53.75
78064;BME280;67429;51.596;-3.264;2023-05-08T01:18:35;99798.54;;;11.25;54.71
78064;BME280;67429;51.596;-3.264;2023-05-08T01:21:02;99796.72;;;11.40;55.20
78064;BME280;67429;51.596;-3.264;2023-05-08T01:23:40;99794.02;;;11.25;55.82
78064;BME280;67429;51.596;-3.264;2023-05-08T01:26:07;99791.07;;;10.84;58.25
78064;BME280;67429;51.596;-3.264;2023-05-08T01:28:22;99784.10;;;10.74;58.47
78064;BME280;67429;51.596;-3.264;2023-05-08T01:30:54;99779.23;;;10.24;60.60
78064;BME280;67429;51.596;-3.264;2023-05-08T01:33:09;99784.13;;;10.06;61.71
78064;BME280;67429;51.596;-3.264;2023-05-08T01:35:36;99779.23;;;10.20;61.26
78064;BME280;67429;51.596;-3.264;2023-05-08T01:38:02;99776.08;;;10.66;60.23
78064;BME280;67429;51.596;-3.264;2023-05-08T01:40:30;99773.39;;;10.52;60.61
78064;BME280;67429;51.596;-3.264;2023-05-08T01:42:49;99774.24;;;10.62;60.42
78064;BME280;67429;51.596;-3.264;2023-05-08T01:45:18;99770.20;;;11.21;58.72
78064;BME280;67429;51.596;-3.264;2023-05-08T01:47:40;99770.30;;;11.14;58.19
78064;BME280;67429;51.596;-3.264;2023-05-08T01:50:10;99766.33;;;10.54;58.91
78064;BME280;67429;51.596;-3.264;2023-05-08T01:52:33;99764.36;;;10.95;58.74
78064;BME280;67429;51.596;-3.264;2023-05-08T01:54:57;99761.08;;;10.69;59.43
78064;BME280;67429;51.596;-3.264;2023-05-08T01:57:22;99762.22;;;10.46;59.29
78064;BME280;67429;51.596;-3.264;2023-05-08T01:59:47;99759.88;;;10.44;59.91
78064;BME280;67429;51.596;-3.264;2023-05-08T02:02:12;99759.71;;;10.73;58.64
78064;BME280;67429;51.596;-3.264;2023-05-08T02:04:38;99757.41;;;10.89;58.50
78064;BME280;67429;51.596;-3.264;2023-05-08T02:07:03;99754.35;;;11.13;57.67
78064;BME280;67429;51.596;-3.264;2023-05-08T02:09:30;99751.82;;;10.51;59.07
78064;BME280;67429;51.596;-3.264;2023-05-08T02:11:54;99751.46;;;9.94;60.18
78064;BME280;67429;51.596;-3.264;2023-05-08T02:14:20;99747.49;;;10.75;59.80
78064;BME280;67429;51.596;-3.264;2023-05-08T02:16:47;99745.45;;;10.83;59.20
78064;BME280;67429;51.596;-3.264;2023-05-08T02:19:10;99744.69;;;11.09;58.75
78064;BME280;67429;51.596;-3.264;2023-05-08T02:21:36;99746.99;;;11.32;58.88
78064;BME280;67429;51.596;-3.264;2023-05-08T02:24:02;99744.48;;;11.27;58.41
78064;BME280;67429;51.596;-3.264;2023-05-08T02:26:27;99747.68;;;11.16;58.65
78064;BME280;67429;51.596;-3.264;2023-05-08T02:28:53;99747.90;;;11.09;58.64
78064;BME280;67429;51.596;-3.264;2023-05-08T02:31:18;99754.36;;;10.87;58.99
78064;BME280;67429;51.596;-3.264;2023-05-08T02:33:44;99752.46;;;10.25;60.42
78064;BME280;67429;51.596;-3.264;2023-05-08T02:36:10;99749.50;;;10.38;61.93
78064;BME280;67429;51.596;-3.264;2023-05-08T02:38:36;99744.92;;;10.58;60.99
78064;BME280;67429;51.596;-3.264;2023-05-08T02:41:01;99748.01;;;10.50;61.58
78064;BME280;67429;51.596;-3.264;2023-05-08T02:43:25;99745.87;;;10.19;62.43
78064;BME280;67429;51.596;-3.264;2023-05-08T02:45:58;99744.53;;;10.17;62.75
78064;BME280;67429;51.596;-3.264;2023-05-08T02:48:23;99736.55;;;10.05;62.03
78064;BME280;67429;51.596;-3.264;2023-05-08T02:50:47;99736.11;;;10.94;60.27
78064;BME280;67429;51.596;-3.264;2023-05-08T02:53:11;99737.16;;;11.35;59.27
78064;BME280;67429;51.596;-3.264;2023-05-08T02:55:38;99731.40;;;11.41;57.88
78064;BME280;67429;51.596;-3.264;2023-05-08T02:58:04;99729.10;;;11.43;57.40
78064;BME280;67429;51.596;-3.264;2023-05-08T03:00:27;99731.24;;;11.47;58.12
78064;BME280;67429;51.596;-3.264;2023-05-08T03:02:53;99727.53;;;11.27;57.95
78064;BME280;67429;51.596;-3.264;2023-05-08T03:05:18;99731.16;;;11.11;58.62
78064;BME280;67429;51.596;-3.264;2023-05-08T03:07:42;99736.62;;;11.60;56.68
78064;BME280;67429;51.596;-3.264;2023-05-08T03:10:10;99733.66;;;11.24;58.22
78064;BME280;67429;51.596;-3.264;2023-05-08T03:12:33;99731.99;;;11.72;57.35
78064;BME280;67429;51.596;-3.264;2023-05-08T03:15:01;99731.08;;;11.74;56.56
78064;BME280;67429;51.596;-3.264;2023-05-08T03:17:23;99728.25;;;11.47;56.55
78064;BME280;67429;51.596;-3.264;2023-05-08T03:19:54;99732.77;;;12.04;56.07
78064;BME280;67429;51.596;-3.264;2023-05-08T03:22:14;99734.72;;;12.05;55.18
78064;BME280;67429;51.596;-3.264;2023-05-08T03:24:39;99734.82;;;12.06;55.56
78064;BME280;67429;51.596;-3.264;2023-05-08T03:27:04;99737.37;;;11.27;56.23
78064;BME280;67429;51.596;-3.264;2023-05-08T03:29:29;99738.00;;;10.96;58.07
78064;BME280;67429;51.596;-3.264;2023-05-08T03:31:56;99734.86;;;11.76;56.91
78064;BME280;67429;51.596;-3.264;2023-05-08T03:34:22;99734.24;;;11.57;56.67
78064;BME280;67429;51.596;-3.264;2023-05-08T03:36:47;99735.81;;;11.57;56.00
78064;BME280;67429;51.596;-3.264;2023-05-08T03:39:11;99734.75;;;12.10;54.91
78064;BME280;67429;51.596;-3.264;2023-05-08T03:41:37;99734.06;;;12.33;55.17
78064;BME280;67429;51.596;-3.264;2023-05-08T03:44:03;99730.95;;;11.47;56.77
78064;BME280;67429;51.596;-3.264;2023-05-08T03:46:30;99730.76;;;11.52;56.51
78064;BME280;67429;51.596;-3.264;2023-05-08T03:48:54;99728.22;;;11.48;56.54
78064;BME280;67429;51.596;-3.264;2023-05-08T03:51:20;99726.33;;;11.34;57.78
78064;BME280;67429;51.596;-3.264;2023-05-08T03:53:45;99725.24;;;11.39;57.48
78064;BME280;67429;51.596;-3.264;2023-05-08T03:56:11;99727.92;;;10.99;59.20
78064;BME280;67429;51.596;-3.264;2023-05-08T03:58:40;99722.73;;;11.31;58.45
78064;BME280;67429;51.596;-3.264;2023-05-08T04:01:06;99725.17;;;10.68;60.53
78064;BME280;67429;51.596;-3.264;2023-05-08T04:03:39;99725.82;;;10.50;61.28
78064;BME280;67429;51.596;-3.264;2023-05-08T04:05:58;99726.64;;;10.00;62.83
78064;BME280;67429;51.596;-3.264;2023-05-08T04:08:23;99726.59;;;10.83;61.16
78064;BME280;67429;51.596;-3.264;2023-05-08T04:10:48;99722.81;;;10.46;60.60
78064;BME280;67429;51.596;-3.264;2023-05-08T04:13:12;99718.93;;;9.95;63.22
78064;BME280;67429;51.596;-3.264;2023-05-08T04:15:38;99718.71;;;10.74;60.72
78064;BME280;67429;51.596;-3.264;2023-05-08T04:18:05;99715.82;;;10.84;61.67
78064;BME280;67429;51.596;-3.264;2023-05-08T04:20:28;99710.34;;;10.32;61.78
78064;BME280;67429;51.596;-3.264;2023-05-08T04:22:53;99708.38;;;10.34;62.43
78064;BME280;67429;51.596;-3.264;2023-05-08T04:25:19;99709.79;;;10.69;61.51
78064;BME280;67429;51.596;-3.264;2023-05-08T04:27:43;99713.52;;;11.07;61.36
78064;BME280;67429;51.596;-3.264;2023-05-08T04:30:09;99708.34;;;10.74;61.43
78064;BME280;67429;51.596;-3.264;2023-05-08T04:32:34;99706.09;;;11.04;60.07
78064;BME280;67429;51.596;-3.264;2023-05-08T04:34:59;99703.19;;;11.41;59.26
78064;BME280;67429;51.596;-3.264;2023-05-08T04:37:26;99701.98;;;12.05;58.20
78064;BME280;67429;51.596;-3.264;2023-05-08T04:39:51;99708.89;;;10.87;60.94
78064;BME280;67429;51.596;-3.264;2023-05-08T04:42:16;99709.19;;;10.92;61.63
78064;BME280;67429;51.596;-3.264;2023-05-08T04:44:43;99707.71;;;10.39;62.64
78064;BME280;67429;51.596;-3.264;2023-05-08T04:47:07;99711.47;;;10.15;63.11
78064;BME280;67429;51.596;-3.264;2023-05-08T04:49:32;99708.84;;;10.33;63.40
78064;BME280;67429;51.596;-3.264;2023-05-08T04:51:58;99706.94;;;10.90;61.68
78064;BME280;67429;51.596;-3.264;2023-05-08T04:54:23;99703.21;;;10.88;60.62
78064;BME280;67429;51.596;-3.264;2023-05-08T04:56:49;99706.84;;;11.23;60.31
78064;BME280;67429;51.596;-3.264;2023-05-08T04:59:14;99704.16;;;11.33;60.10
78064;BME280;67429;51.596;-3.264;2023-05-08T05:01:40;99701.83;;;10.94;60.93
78064;BME280;67429;51.596;-3.264;2023-05-08T05:04:06;99703.28;;;11.70;59.33
78064;BME280;67429;51.596;-3.264;2023-05-08T05:06:31;99702.00;;;11.14;60.19
78064;BME280;67429;51.596;-3.264;2023-05-08T05:08:57;99705.16;;;11.57;59.61
78064;BME280;67429;51.596;-3.264;2023-05-08T05:11:23;99706.10;;;11.09;60.15
78064;BME280;67429;51.596;-3.264;2023-05-08T05:13:48;99701.63;;;11.49;59.90
78064;BME280;67429;51.596;-3.264;2023-05-08T05:16:14;99703.19;;;10.98;60.93
78064;BME280;67429;51.596;-3.264;2023-05-08T05:18:40;99701.43;;;11.32;60.27
78064;BME280;67429;51.596;-3.264;2023-05-08T05:21:05;99694.99;;;11.88;58.95
78064;BME280;67429;51.596;-3.264;2023-05-08T05:23:31;99699.35;;;11.14;60.36
78064;BME280;67429;51.596;-3.264;2023-05-08T05:25:56;99698.31;;;11.79;59.20
78064;BME280;67429;51.596;-3.264;2023-05-08T05:28:22;99694.92;;;11.76;58.80
78064;BME280;67429;51.596;-3.264;2023-05-08T05:30:47;99700.28;;;11.94;58.38
78064;BME280;67429;51.596;-3.264;2023-05-08T05:33:13;99696.24;;;12.10;58.44
78064;BME280;67429;51.596;-3.264;2023-05-08T05:35:38;99695.52;;;12.01;58.68
78064;BME280;67429;51.596;-3.264;2023-05-08T05:38:04;99701.27;;;11.57;59.49
78064;BME280;67429;51.596;-3.264;2023-05-08T05:40:30;99703.83;;;11.12;60.23
78064;BME280;67429;51.596;-3.264;2023-05-08T05:42:55;99705.96;;;11.60;59.51
78064;BME280;67429;51.596;-3.264;2023-05-08T05:45:21;99708.05;;;10.81;62.01
78064;BME280;67429;51.596;-3.264;2023-05-08T05:47:46;99704.72;;;10.89;61.29
78064;BME280;67429;51.596;-3.264;2023-05-08T05:50:12;99703.98;;;11.31;60.48
78064;BME280;67429;51.596;-3.264;2023-05-08T05:52:37;99704.93;;;10.93;61.20
78064;BME280;67429;51.596;-3.264;2023-05-08T05:55:03;99705.03;;;10.81;61.33
78064;BME280;67429;51.596;-3.264;2023-05-08T05:57:28;99705.79;;;11.05;61.78
78064;BME280;67429;51.596;-3.264;2023-05-08T05:59:54;99704.93;;;10.96;62.41
78064;BME280;67429;51.596;-3.264;2023-05-08T06:02:19;99703.72;;;10.81;63.11
78064;BME280;67429;51.596;-3.264;2023-05-08T06:04:45;99702.81;;;10.16;64.54
78064;BME280;67429;51.596;-3.264;2023-05-08T06:07:11;99700.96;;;9.80;65.64
78064;BME280;67429;51.596;-3.264;2023-05-08T06:09:36;99699.39;;;9.97;65.55
78064;BME280;67429;51.596;-3.264;2023-05-08T06:12:02;99698.93;;;9.81;67.03
78064;BME280;67429;51.596;-3.264;2023-05-08T06:14:28;99699.49;;;9.71;66.23
78064;BME280;67429;51.596;-3.264;2023-05-08T06:16:53;99702.31;;;10.31;64.83
78064;BME280;67429;51.596;-3.264;2023-05-08T06:19:19;99700.73;;;10.38;64.68
78064;BME280;67429;51.596;-3.264;2023-05-08T06:21:45;99696.98;;;10.28;64.65
78064;BME280;67429;51.596;-3.264;2023-05-08T06:24:10;99697.61;;;9.52;67.19
78064;BME280;67429;51.596;-3.264;2023-05-08T06:26:36;99697.79;;;10.39;65.67
78064;BME280;67429;51.596;-3.264;2023-05-08T06:29:02;99695.16;;;9.94;66.72
78064;BME280;67429;51.596;-3.264;2023-05-08T06:31:27;99696.13;;;10.11;66.66
78064;BME280;67429;51.596;-3.264;2023-05-08T06:33:53;99697.12;;;9.94;67.48
78064;BME280;67429;51.596;-3.264;2023-05-08T06:36:18;99694.16;;;9.58;68.22
78064;BME280;67429;51.596;-3.264;2023-05-08T06:38:44;99698.37;;;9.37;68.47
78064;BME280;67429;51.596;-3.264;2023-05-08T06:41:14;99698.99;;;10.18;66.61
78064;BME280;67429;51.596;-3.264;2023-05-08T06:43:35;99697.31;;;10.79;65.12
78064;BME280;67429;51.596;-3.264;2023-05-08T06:46:01;99695.96;;;10.11;66.24
78064;BME280;67429;51.596;-3.264;2023-05-08T06:48:27;99696.86;;;9.79;67.40
78064;BME280;67429;51.596;-3.264;2023-05-08T06:50:52;99695.46;;;9.82;67.88
78064;BME280;67429;51.596;-3.264;2023-05-08T06:53:17;99691.66;;;10.42;66.28
78064;BME280;67429;51.596;-3.264;2023-05-08T06:55:43;99690.82;;;10.56;65.42
78064;BME280;67429;51.596;-3.264;2023-05-08T06:58:09;99690.62;;;10.89;65.59
78064;BME280;67429;51.596;-3.264;2023-05-08T07:00:34;99692.22;;;9.96;67.63
78064;BME280;67429;51.596;-3.264;2023-05-08T07:02:59;99691.78;;;9.90;67.91
78064;BME280;67429;51.596;-3.264;2023-05-08T07:05:25;99689.04;;;10.05;67.59
78064;BME280;67429;51.596;-3.264;2023-05-08T07:07:50;99688.50;;;10.44;66.88
78064;BME280;67429;51.596;-3.264;2023-05-08T07:10:15;99687.46;;;10.62;66.35
78064;BME280;67429;51.596;-3.264;2023-05-08T07:12:41;99688.58;;;11.04;65.90
78064;BME280;67429;51.596;-3.264;2023-05-08T07:15:07;99687.73;;;10.75;66.14
78064;BME280;67429;51.596;-3.264;2023-05-08T07:17:31;99691.92;;;10.85;65.71
78064;BME280;67429;51.596;-3.264;2023-05-08T07:19:57;99688.28;;;10.43;66.14
78064;BME280;67429;51.596;-3.264;2023-05-08T07:22:22;99689.86;;;10.93;66.17
78064;BME280;67429;51.596;-3.264;2023-05-08T07:24:47;99687.13;;;10.67;66.99
78064;BME280;67429;51.596;-3.264;2023-05-08T07:27:12;99687.41;;;11.05;65.50
78064;BME280;67429;51.596;-3.264;2023-05-08T07:29:38;99686.17;;;10.77;65.97
78064;BME280;67429;51.596;-3.264;2023-05-08T07:32:06;99682.92;;;11.21;65.38
78064;BME280;67429;51.596;-3.264;2023-05-08T07:34:32;99685.02;;;11.38;64.55
78064;BME280;67429;51.596;-3.264;2023-05-08T07:36:54;99680.64;;;11.63;65.01
78064;BME280;67429;51.596;-3.264;2023-05-08T07:39:20;99678.37;;;10.48;67.07
78064;BME280;67429;51.596;-3.264;2023-05-08T07:41:45;99682.81;;;10.57;66.55
78064;BME280;67429;51.596;-3.264;2023-05-08T07:44:11;99681.10;;;11.26;65.47
78064;BME280;67429;51.596;-3.264;2023-05-08T07:46:37;99682.81;;;11.22;64.62
78064;BME280;67429;51.596;-3.264;2023-05-08T07:49:02;99681.87;;;10.64;66.40
78064;BME280;67429;51.596;-3.264;2023-05-08T07:51:27;99679.25;;;10.56;67.51
78064;BME280;67429;51.596;-3.264;2023-05-08T07:53:53;99676.40;;;10.24;67.62
78064;BME280;67429;51.596;-3.264;2023-05-08T07:56:19;99674.94;;;10.24;68.70
78064;BME280;67429;51.596;-3.264;2023-05-08T07:58:44;99673.70;;;10.44;67.93
78064;BME280;67429;51.596;-3.264;2023-05-08T08:01:10;99671.96;;;9.71;70.64
78064;BME280;67429;51.596;-3.264;2023-05-08T08:03:35;99671.32;;;10.49;68.66
78064;BME280;67429;51.596;-3.264;2023-05-08T08:06:00;99668.94;;;10.25;68.53
78064;BME280;67429;51.596;-3.264;2023-05-08T08:08:26;99668.98;;;10.46;68.96
78064;BME280;67429;51.596;-3.264;2023-05-08T08:10:52;99666.37;;;10.49;68.61
78064;BME280;67429;51.596;-3.264;2023-05-08T08:13:17;99660.79;;;10.01;69.63
78064;BME280;67429;51.596;-3.264;2023-05-08T08:15:43;99666.95;;;9.71;70.68
78064;BME280;67429;51.596;-3.264;2023-05-08T08:18:08;99668.95;;;10.26;70.22
78064;BME280;67429;51.596;-3.264;2023-05-08T08:20:34;99667.33;;;10.32;69.29
78064;BME280;67429;51.596;-3.264;2023-05-08T08:22:59;99663.41;;;10.65;68.70
78064;BME280;67429;51.596;-3.264;2023-05-08T08:25:25;99657.41;;;11.13;67.76
78064;BME280;67429;51.596;-3.264;2023-05-08T08:27:51;99642.66;;;10.16;68.77
78064;BME280;67429;51.596;-3.264;2023-05-08T08:30:16;99640.40;;;10.26;69.21
78064;BME280;67429;51.596;-3.264;2023-05-08T08:32:42;99642.43;;;10.11;69.25
78064;BME280;67429;51.596;-3.264;2023-05-08T08:35:08;99649.20;;;10.97;67.47
78064;BME280;67429;51.596;-3.264;2023-05-08T08:37:33;99646.17;;;11.28;67.43
78064;BME280;67429;51.596;-3.264;2023-05-08T08:39:59;99637.84;;;10.69;68.07
78064;BME280;67429;51.596;-3.264;2023-05-08T08:42:24;99635.78;;;11.40;66.87
78064;BME280;67429;51.596;-3.264;2023-05-08T08:44:50;99638.11;;;11.62;66.65
78064;BME280;67429;51.596;-3.264;2023-05-08T08:47:15;99634.64;;;11.90;65.49
78064;BME280;67429;51.596;-3.264;2023-05-08T08:49:46;99637.21;;;11.57;66.05
78064;BME280;67429;51.596;-3.264;2023-05-08T08:52:14;99642.02;;;11.57;66.83
78064;BME280;67429;51.596;-3.264;2023-05-08T08:54:33;99634.67;;;11.45;66.91
78064;BME280;67429;51.596;-3.264;2023-05-08T08:57:00;99641.10;;;11.50;67.80
78064;BME280;67429;51.596;-3.264;2023-05-08T08:59:24;99638.50;;;11.77;66.60
78064;BME280;67429;51.596;-3.264;2023-05-08T09:01:54;99634.36;;;11.58;66.04
78064;BME280;67429;51.596;-3.264;2023-05-08T09:04:15;99629.54;;;11.41;67.04
78064;BME280;67429;51.596;-3.264;2023-05-08T09:06:40;99627.36;;;12.07;65.27
78064;BME280;67429;51.596;-3.264;2023-05-08T09:09:06;99626.76;;;12.06;65.46
78064;BME280;67429;51.596;-3.264;2023-05-08T09:11:31;99635.24;;;12.03;65.01
78064;BME280;67429;51.596;-3.264;2023-05-08T09:13:58;99636.78;;;11.50;66.77
78064;BME280;67429;51.596;-3.264;2023-05-08T09:16:23;99641.91;;;11.35;66.49
78064;BME280;67429;51.596;-3.264;2023-05-08T09:18:48;99638.92;;;11.31;66.57
78064;BME280;67429;51.596;-3.264;2023-05-08T09:21:13;99632.54;;;11.43;66.61
78064;BME280;67429;51.596;-3.264;2023-05-08T09:26:05;99637.73;;;11.24;68.49
78064;BME280;67429;51.596;-3.264;2023-05-08T09:28:30;99640.23;;;11.26;67.78
78064;BME280;67429;51.596;-3.264;2023-05-08T09:30:58;99645.53;;;10.76;68.97
78064;BME280;67429;51.596;-3.264;2023-05-08T09:33:22;99648.34;;;10.32;70.55
78064;BME280;67429;51.596;-3.264;2023-05-08T09:35:47;99647.54;;;10.04;71.27
78064;BME280;67429;51.596;-3.264;2023-05-08T09:40:38;99630.48;;;9.89;72.38
78064;BME280;67429;51.596;-3.264;2023-05-08T09:43:11;99628.58;;;9.89;72.92
78064;BME280;67429;51.596;-3.264;2023-05-08T09:45:31;99628.91;;;10.44;72.10
78064;BME280;67429;51.596;-3.264;2023-05-08T09:47:55;99631.41;;;9.93;72.09
78064;BME280;67429;51.596;-3.264;2023-05-08T09:50:20;99630.14;;;10.44;72.09
78064;BME280;67429;51.596;-3.264;2023-05-08T09:52:47;99627.78;;;10.54;70.44
78064;BME280;67429;51.596;-3.264;2023-05-08T09:55:12;99623.32;;;10.68;70.16
78064;BME280;67429;51.596;-3.264;2023-05-08T09:57:39;99620.29;;;10.84;69.21
78064;BME280;67429;51.596;-3.264;2023-05-08T10:00:06;99619.34;;;10.62;69.93
78064;BME280;67429;51.596;-3.264;2023-05-08T10:02:29;99622.34;;;11.10;68.64
78064;BME280;67429;51.596;-3.264;2023-05-08T10:04:54;99614.54;;;11.25;67.70
78064;BME280;67429;51.596;-3.264;2023-05-08T10:07:26;99605.84;;;11.34;67.92
78064;BME280;67429;51.596;-3.264;2023-05-08T10:12:11;99625.16;;;11.24;68.44
78064;BME280;67429;51.596;-3.264;2023-05-08T10:14:37;99621.37;;;10.84;69.71
78064;BME280;67429;51.596;-3.264;2023-05-08T10:17:07;99608.27;;;10.72;69.04
78064;BME280;67429;51.596;-3.264;2023-05-08T10:19:28;99606.12;;;11.21;69.09
78064;BME280;67429;51.596;-3.264;2023-05-08T10:21:54;99609.17;;;10.71;70.03
78064;BME280;67429;51.596;-3.264;2023-05-08T10:24:20;99600.08;;;11.15;69.55
78064;BME280;67429;51.596;-3.264;2023-05-08T10:26:53;99590.33;;;11.02;69.90
78064;BME280;67429;51.596;-3.264;2023-05-08T10:29:17;99591.87;;;11.05;69.54
78064;BME280;67429;51.596;-3.264;2023-05-08T10:31:38;99591.76;;;10.59;70.24
78064;BME280;67429;51.596;-3.264;2023-05-08T10:34:02;99589.52;;;11.24;69.16
78064;BME280;67429;51.596;-3.264;2023-05-08T10:36:27;99592.36;;;11.51;67.69
78064;BME280;67429;51.596;-3.264;2023-05-08T10:38:53;99597.61;;;11.30;68.06
78064;BME280;67429;51.596;-3.264;2023-05-08T10:41:18;99605.85;;;10.83;69.17
78064;BME280;67429;51.596;-3.264;2023-05-08T10:43:44;99603.52;;;11.35;68.01
78064;BME280;67429;51.596;-3.264;2023-05-08T10:46:15;99608.12;;;11.86;67.04
78064;BME280;67429;51.596;-3.264;2023-05-08T10:48:42;99608.53;;;11.72;66.75
78064;BME280;67429;51.596;-3.264;2023-05-08T10:51:06;99607.02;;;11.30;67.70
78064;BME280;67429;51.596;-3.264;2023-05-08T10:53:33;99608.96;;;11.51;68.11
78064;BME280;67429;51.596;-3.264;2023-05-08T10:55:52;99609.03;;;12.02;66.80
78064;BME280;67429;51.596;-3.264;2023-05-08T10:58:28;99604.99;;;11.53;67.79
78064;BME280;67429;51.596;-3.264;2023-05-08T11:03:08;99604.59;;;12.12;65.83
78064;BME280;67429;51.596;-3.264;2023-05-08T11:05:44;99600.93;;;12.17;65.71
78064;BME280;67429;51.596;-3.264;2023-05-08T11:07:59;99593.96;;;11.99;67.19
78064;BME280;67429;51.596;-3.264;2023-05-08T11:10:29;99589.27;;;11.62;68.09
78064;BME280;67429;51.596;-3.264;2023-05-08T11:12:51;99594.83;;;11.95;67.64
78064;BME280;67429;51.596;-3.264;2023-05-08T11:15:16;99601.91;;;11.85;66.77
78064;BME280;67429;51.596;-3.264;2023-05-08T11:17:42;99598.36;;;12.04;66.83
78064;BME280;67429;51.596;-3.264;2023-05-08T11:20:08;99593.07;;;12.13;66.45
78064;BME280;67429;51.596;-3.264;2023-05-08T11:22:33;99593.04;;;12.41;66.04
78064;BME280;67429;51.596;-3.264;2023-05-08T11:25:01;99593.10;;;12.14;66.99
78064;BME280;67429;51.596;-3.264;2023-05-08T11:27:33;99592.01;;;12.50;66.74
78064;BME280;67429;51.596;-3.264;2023-05-08T11:32:15;99580.47;;;11.96;68.52
78064;BME280;67429;51.596;-3.264;2023-05-08T11:34:44;99587.07;;;12.30;68.88
78064;BME280;67429;51.596;-3.264;2023-05-08T11:37:08;99580.35;;;11.50;70.66
78064;BME280;67429;51.596;-3.264;2023-05-08T11:39:32;99574.35;;;12.00;69.43
78064;BME280;67429;51.596;-3.264;2023-05-08T11:44:23;99583.01;;;12.34;68.27
78064;BME280;67429;51.596;-3.264;2023-05-08T11:46:50;99574.88;;;11.50;69.32
78064;BME280;67429;51.596;-3.264;2023-05-08T11:49:15;99570.98;;;12.35;67.90
78064;BME280;67429;51.596;-3.264;2023-05-08T11:51:40;99571.51;;;11.96;68.13
78064;BME280;67429;51.596;-3.264;2023-05-08T11:54:05;99569.56;;;11.80;69.25
78064;BME280;67429;51.596;-3.264;2023-05-08T11:56:30;99575.07;;;12.10;69.27
78064;BME280;67429;51.596;-3.264;2023-05-08T11:59:02;99576.44;;;12.18;68.17
78064;BME280;67429;51.596;-3.264;2023-05-08T12:01:22;99571.00;;;12.49;68.42
78064;BME280;67429;51.596;-3.264;2023-05-08T12:03:47;99576.47;;;13.15;66.21
78064;BME280;67429;51.596;-3.264;2023-05-08T12:06:13;99583.20;;;13.28;65.43
78064;BME280;67429;51.596;-3.264;2023-05-08T12:08:38;99584.72;;;12.89;65.82
78064;BME280;67429;51.596;-3.264;2023-05-08T12:11:04;99583.40;;;12.96;65.90
78064;BME280;67429;51.596;-3.264;2023-05-08T12:13:29;99576.68;;;13.16;65.60
78064;BME280;67429;51.596;-3.264;2023-05-08T12:15:56;99574.75;;;12.78;65.73
78064;BME280;67429;51.596;-3.264;2023-05-08T12:18:21;99563.28;;;12.46;67.26
78064;BME280;67429;51.596;-3.264;2023-05-08T12:20:50;99561.55;;;12.54;67.58
78064;BME280;67429;51.596;-3.264;2023-05-08T12:23:12;99557.44;;;13.14;66.14
78064;BME280;67429;51.596;-3.264;2023-05-08T12:25:36;99545.39;;;12.85;66.34
78064;BME280;67429;51.596;-3.264;2023-05-08T12:28:02;99540.69;;;12.19;68.64
78064;BME280;67429;51.596;-3.264;2023-05-08T12:30:28;99533.36;;;12.98;66.19
78064;BME280;67429;51.596;-3.264;2023-05-08T12:32:54;99540.95;;;12.93;66.10
78064;BME280;67429;51.596;-3.264;2023-05-08T12:35:19;99540.14;;;12.73;66.95
78064;BME280;67429;51.596;-3.264;2023-05-08T12:37:44;99542.85;;;12.74;67.69
78064;BME280;67429;51.596;-3.264;2023-05-08T12:42:42;99537.37;;;13.45;65.04
78064;BME280;67429;51.596;-3.264;2023-05-08T12:45:01;99537.07;;;12.92;65.97
78064;BME280;67429;51.596;-3.264;2023-05-08T12:47:26;99537.13;;;13.05;66.32
78064;BME280;67429;51.596;-3.264;2023-05-08T12:49:56;99540.24;;;12.70;67.33
78064;BME280;67429;51.596;-3.264;2023-05-08T12:52:17;99534.38;;;13.20;66.77
78064;BME280;67429;51.596;-3.264;2023-05-08T12:54:46;99532.45;;;13.66;65.40
78064;BME280;67429;51.596;-3.264;2023-05-08T12:57:09;99529.14;;;13.66;65.58